Drogobych, Ukraine
Current Conditions -  °F | °C
As of 10:00 PM on Saturday 25 Oct 2014 (Local Time) from UKLL Reporting Station
Clear Clear  
Wind Chill: 18°   Ceiling: Unl
Heat Index: 28°   Visibility: 6mi
Dew Point: 19°   Wind: 13mph
Humidity: 69%   Direction: 150°SSE
Pressure: 30.39"   Gusts: NA
Location:  49.35°N, 23.52°E
Report Text: UKLL 251900Z 15006MPS CAVOK M02/M07 Q1029 13CLRD80 NOSIG
Loading
Personal Weather Stations






























Interactive Weather Map
Tropical Storm Tracking
New forecast layout! Learn more

10-Day Weather Forecast

Advertisements
Track Severe Weather on mobile